sensor_id;sensor_type;location;lat;lon;timestamp;pressure;altitude;pressure_sealevel;temperature;humidity
13593;BME280;6867;50.998;4.250;2023-04-30T00:01:31;101975.75;;;10.05;73.11
13593;BME280;6867;50.998;4.250;2023-04-30T00:03:59;101975.50;;;10.23;73.18
13593;BME280;6867;50.998;4.250;2023-04-30T00:06:25;101956.69;;;10.31;72.51
13593;BME280;6867;50.998;4.250;2023-04-30T00:08:52;101953.91;;;10.16;72.08
13593;BME280;6867;50.998;4.250;2023-04-30T00:11:19;101956.09;;;10.13;72.37
13593;BME280;6867;50.998;4.250;2023-04-30T00:13:45;101955.91;;;10.14;72.09
13593;BME280;6867;50.998;4.250;2023-04-30T00:16:12;101952.75;;;10.11;71.77
13593;BME280;6867;50.998;4.250;2023-04-30T00:18:39;101951.41;;;10.07;72.11
13593;BME280;6867;50.998;4.250;2023-04-30T00:21:07;101958.63;;;10.06;72.71
13593;BME280;6867;50.998;4.250;2023-04-30T00:23:34;101960.19;;;10.01;72.05
13593;BME280;6867;50.998;4.250;2023-04-30T00:26:00;101957.84;;;9.97;73.10
13593;BME280;6867;50.998;4.250;2023-04-30T00:28:27;101948.63;;;10.00;72.41
13593;BME280;6867;50.998;4.250;2023-04-30T00:30:53;101939.72;;;10.00;72.64
13593;BME280;6867;50.998;4.250;2023-04-30T00:33:20;101940.63;;;9.84;72.69
13593;BME280;6867;50.998;4.250;2023-04-30T00:35:47;101941.00;;;9.72;72.52
13593;BME280;6867;50.998;4.250;2023-04-30T00:38:15;101940.50;;;9.69;71.75
13593;BME280;6867;50.998;4.250;2023-04-30T00:40:42;101937.50;;;9.64;72.25
13593;BME280;6867;50.998;4.250;2023-04-30T00:43:09;101936.72;;;9.55;72.24
13593;BME280;6867;50.998;4.250;2023-04-30T00:45:36;101945.09;;;9.52;72.46
13593;BME280;6867;50.998;4.250;2023-04-30T00:48:03;101939.41;;;9.47;72.50
13593;BME280;6867;50.998;4.250;2023-04-30T00:50:30;101941.09;;;9.48;71.94
13593;BME280;6867;50.998;4.250;2023-04-30T00:52:57;101936.91;;;9.45;72.66
13593;BME280;6867;50.998;4.250;2023-04-30T00:55:27;101931.69;;;9.44;72.34
13593;BME280;6867;50.998;4.250;2023-04-30T00:57:53;101937.75;;;9.38;72.45
13593;BME280;6867;50.998;4.250;2023-04-30T01:00:21;101941.13;;;9.32;72.29
13593;BME280;6867;50.998;4.250;2023-04-30T01:02:48;101939.13;;;9.26;73.32
13593;BME280;6867;50.998;4.250;2023-04-30T01:05:14;101928.91;;;9.21;72.36
13593;BME280;6867;50.998;4.250;2023-04-30T01:07:41;101937.13;;;9.19;73.06
13593;BME280;6867;50.998;4.250;2023-04-30T01:10:11;101933.09;;;9.15;72.49
13593;BME280;6867;50.998;4.250;2023-04-30T01:12:44;101935.97;;;9.14;73.10
13593;BME280;6867;50.998;4.250;2023-04-30T01:15:19;101940.81;;;9.10;73.11
13593;BME280;6867;50.998;4.250;2023-04-30T01:17:54;101943.00;;;9.07;73.20
13593;BME280;6867;50.998;4.250;2023-04-30T01:20:22;101939.34;;;9.00;72.96
13593;BME280;6867;50.998;4.250;2023-04-30T01:22:54;101941.66;;;8.94;73.50
13593;BME280;6867;50.998;4.250;2023-04-30T01:28:27;101945.53;;;8.92;73.76
13593;BME280;6867;50.998;4.250;2023-04-30T01:30:53;101948.72;;;8.87;73.01
13593;BME280;6867;50.998;4.250;2023-04-30T01:33:20;101945.53;;;8.84;72.95
13593;BME280;6867;50.998;4.250;2023-04-30T01:36:02;101954.91;;;8.80;73.40
13593;BME280;6867;50.998;4.250;2023-04-30T01:38:49;101951.56;;;8.69;74.07
13593;BME280;6867;50.998;4.250;2023-04-30T01:41:27;101947.88;;;8.70;73.61
13593;BME280;6867;50.998;4.250;2023-04-30T01:44:05;101948.53;;;8.72;73.83
13593;BME280;6867;50.998;4.250;2023-04-30T01:46:39;101945.69;;;8.66;73.38
13593;BME280;6867;50.998;4.250;2023-04-30T01:49:11;101948.53;;;8.64;73.52
13593;BME280;6867;50.998;4.250;2023-04-30T01:51:42;101943.66;;;8.52;73.72
13593;BME280;6867;50.998;4.250;2023-04-30T01:54:16;101952.22;;;8.55;73.49
13593;BME280;6867;50.998;4.250;2023-04-30T01:56:52;101946.69;;;8.48;74.01
13593;BME280;6867;50.998;4.250;2023-04-30T01:59:23;101945.34;;;8.44;73.37
13593;BME280;6867;50.998;4.250;2023-04-30T02:01:51;101954.34;;;8.43;73.25
13593;BME280;6867;50.998;4.250;2023-04-30T02:04:18;101954.84;;;8.39;73.22
13593;BME280;6867;50.998;4.250;2023-04-30T02:06:45;101952.34;;;8.37;73.61
13593;BME280;6867;50.998;4.250;2023-04-30T02:09:11;101952.63;;;8.34;73.79
13593;BME280;6867;50.998;4.250;2023-04-30T02:11:38;101951.47;;;8.29;74.26
13593;BME280;6867;50.998;4.250;2023-04-30T02:14:05;101949.09;;;8.26;73.74
13593;BME280;6867;50.998;4.250;2023-04-30T02:16:33;101956.09;;;8.18;74.25
13593;BME280;6867;50.998;4.250;2023-04-30T02:19:00;101955.25;;;8.10;74.57
13593;BME280;6867;50.998;4.250;2023-04-30T02:21:27;101950.06;;;8.08;74.23
13593;BME280;6867;50.998;4.250;2023-04-30T02:23:54;101961.44;;;8.10;74.42
13593;BME280;6867;50.998;4.250;2023-04-30T02:26:20;101955.09;;;8.11;73.85
13593;BME280;6867;50.998;4.250;2023-04-30T02:28:47;101951.91;;;8.08;74.06
13593;BME280;6867;50.998;4.250;2023-04-30T02:31:14;101948.06;;;8.10;73.77
13593;BME280;6867;50.998;4.250;2023-04-30T02:33:42;101949.91;;;8.10;74.02
13593;BME280;6867;50.998;4.250;2023-04-30T02:36:08;101948.03;;;8.02;73.90
13593;BME280;6867;50.998;4.250;2023-04-30T02:38:35;101952.88;;;7.98;74.27
13593;BME280;6867;50.998;4.250;2023-04-30T02:41:02;101961.75;;;7.99;74.72
13593;BME280;6867;50.998;4.250;2023-04-30T02:43:28;101949.00;;;7.93;74.41
13593;BME280;6867;50.998;4.250;2023-04-30T02:45:55;101948.16;;;7.92;74.43
13593;BME280;6867;50.998;4.250;2023-04-30T02:48:22;101950.84;;;7.92;74.57
13593;BME280;6867;50.998;4.250;2023-04-30T02:50:50;101956.22;;;8.01;74.27
13593;BME280;6867;50.998;4.250;2023-04-30T02:53:16;101953.72;;;7.99;74.97
13593;BME280;6867;50.998;4.250;2023-04-30T02:55:43;101955.56;;;7.98;75.25
13593;BME280;6867;50.998;4.250;2023-04-30T02:58:10;101950.34;;;7.97;74.63
13593;BME280;6867;50.998;4.250;2023-04-30T03:00:37;101964.25;;;8.01;74.99
13593;BME280;6867;50.998;4.250;2023-04-30T03:03:04;101955.88;;;7.95;74.80
13593;BME280;6867;50.998;4.250;2023-04-30T03:05:31;101943.13;;;7.89;74.65
13593;BME280;6867;50.998;4.250;2023-04-30T03:07:59;101938.63;;;7.90;75.03
13593;BME280;6867;50.998;4.250;2023-04-30T03:10:25;101947.63;;;7.81;75.09
13593;BME280;6867;50.998;4.250;2023-04-30T03:12:52;101954.13;;;7.78;75.08
13593;BME280;6867;50.998;4.250;2023-04-30T03:15:19;101951.28;;;7.80;74.98
13593;BME280;6867;50.998;4.250;2023-04-30T03:17:45;101942.59;;;7.78;74.75
13593;BME280;6867;50.998;4.250;2023-04-30T03:20:12;101952.44;;;7.77;74.77
13593;BME280;6867;50.998;4.250;2023-04-30T03:22:39;101956.97;;;7.77;75.09
13593;BME280;6867;50.998;4.250;2023-04-30T03:25:08;101967.81;;;7.75;75.54
13593;BME280;6867;50.998;4.250;2023-04-30T03:27:35;101959.66;;;7.85;75.55
13593;BME280;6867;50.998;4.250;2023-04-30T03:30:02;101953.31;;;7.86;75.16
13593;BME280;6867;50.998;4.250;2023-04-30T03:32:28;101944.44;;;7.85;75.14
13593;BME280;6867;50.998;4.250;2023-04-30T03:34:55;101939.06;;;7.77;75.46
13593;BME280;6867;50.998;4.250;2023-04-30T03:37:22;101935.03;;;7.73;75.32
13593;BME280;6867;50.998;4.250;2023-04-30T03:39:48;101942.56;;;7.69;75.32
13593;BME280;6867;50.998;4.250;2023-04-30T03:42:16;101946.22;;;7.68;75.20
13593;BME280;6867;50.998;4.250;2023-04-30T03:44:43;101940.34;;;7.65;75.11
13593;BME280;6867;50.998;4.250;2023-04-30T03:47:10;101940.00;;;7.60;75.30
13593;BME280;6867;50.998;4.250;2023-04-30T03:49:36;101936.66;;;7.58;75.31
13593;BME280;6867;50.998;4.250;2023-04-30T03:52:03;101947.34;;;7.58;74.92
13593;BME280;6867;50.998;4.250;2023-04-30T03:54:31;101943.31;;;7.54;75.26
13593;BME280;6867;50.998;4.250;2023-04-30T03:56:58;101943.16;;;7.55;75.49
13593;BME280;6867;50.998;4.250;2023-04-30T03:59:30;101940.34;;;7.57;75.11
13593;BME280;6867;50.998;4.250;2023-04-30T04:01:57;101950.84;;;7.58;75.45
13593;BME280;6867;50.998;4.250;2023-04-30T04:04:23;101943.84;;;7.57;75.48
13593;BME280;6867;50.998;4.250;2023-04-30T04:06:50;101945.50;;;7.58;75.72
13593;BME280;6867;50.998;4.250;2023-04-30T04:09:17;101946.34;;;7.59;75.55
13593;BME280;6867;50.998;4.250;2023-04-30T04:11:43;101942.84;;;7.58;76.19
13593;BME280;6867;50.998;4.250;2023-04-30T04:14:10;101951.03;;;7.57;75.52
13593;BME280;6867;50.998;4.250;2023-04-30T04:16:38;101951.69;;;7.59;75.85
13593;BME280;6867;50.998;4.250;2023-04-30T04:19:05;101953.72;;;7.57;75.74
13593;BME280;6867;50.998;4.250;2023-04-30T04:21:31;101948.50;;;7.55;76.07
13593;BME280;6867;50.998;4.250;2023-04-30T04:23:58;101953.84;;;7.55;76.12
13593;BME280;6867;50.998;4.250;2023-04-30T04:26:29;101961.88;;;7.55;75.95
13593;BME280;6867;50.998;4.250;2023-04-30T04:28:56;101968.09;;;7.64;76.07
13593;BME280;6867;50.998;4.250;2023-04-30T04:31:22;101956.09;;;7.68;75.97
13593;BME280;6867;50.998;4.250;2023-04-30T04:33:51;101967.66;;;7.77;75.82
13593;BME280;6867;50.998;4.250;2023-04-30T04:36:22;101968.34;;;7.79;76.18
13593;BME280;6867;50.998;4.250;2023-04-30T04:38:49;101964.66;;;7.80;75.89
13593;BME280;6867;50.998;4.250;2023-04-30T04:41:15;101969.53;;;7.84;75.58
13593;BME280;6867;50.998;4.250;2023-04-30T04:43:43;101970.06;;;7.88;75.72
13593;BME280;6867;50.998;4.250;2023-04-30T04:46:10;101972.94;;;7.94;75.92
13593;BME280;6867;50.998;4.250;2023-04-30T04:48:37;101975.66;;;8.03;75.68
13593;BME280;6867;50.998;4.250;2023-04-30T04:51:05;101981.88;;;8.11;76.15
13593;BME280;6867;50.998;4.250;2023-04-30T04:53:31;101983.72;;;8.19;76.16
13593;BME280;6867;50.998;4.250;2023-04-30T04:55:58;101981.41;;;8.24;75.93
13593;BME280;6867;50.998;4.250;2023-04-30T04:58:25;101978.06;;;8.30;76.24
13593;BME280;6867;50.998;4.250;2023-04-30T05:00:52;101985.97;;;8.40;76.03
13593;BME280;6867;50.998;4.250;2023-04-30T05:03:19;101988.66;;;8.48;76.02
13593;BME280;6867;50.998;4.250;2023-04-30T05:05:46;101991.06;;;8.59;75.76
13593;BME280;6867;50.998;4.250;2023-04-30T05:08:14;101992.91;;;8.75;76.28
13593;BME280;6867;50.998;4.250;2023-04-30T05:10:40;101992.25;;;8.81;76.57
13593;BME280;6867;50.998;4.250;2023-04-30T05:13:07;101996.78;;;8.89;76.51
13593;BME280;6867;50.998;4.250;2023-04-30T05:15:34;101992.56;;;8.94;76.53
13593;BME280;6867;50.998;4.250;2023-04-30T05:18:00;101999.97;;;9.09;76.58
13593;BME280;6867;50.998;4.250;2023-04-30T05:20:27;101993.78;;;9.16;76.28
13593;BME280;6867;50.998;4.250;2023-04-30T05:22:54;102002.97;;;9.22;75.58
13593;BME280;6867;50.998;4.250;2023-04-30T05:25:22;102003.97;;;9.29;76.31
13593;BME280;6867;50.998;4.250;2023-04-30T05:27:48;102002.13;;;9.38;75.73
13593;BME280;6867;50.998;4.250;2023-04-30T05:30:15;102003.28;;;9.52;75.86
13593;BME280;6867;50.998;4.250;2023-04-30T05:32:42;102008.09;;;9.64;76.73
13593;BME280;6867;50.998;4.250;2023-04-30T05:35:14;102006.75;;;9.68;75.44
13593;BME280;6867;50.998;4.250;2023-04-30T05:37:41;102001.69;;;9.82;76.36
13593;BME280;6867;50.998;4.250;2023-04-30T05:40:08;102000.28;;;9.94;76.31
13593;BME280;6867;50.998;4.250;2023-04-30T05:42:37;102001.91;;;10.11;75.89
13593;BME280;6867;50.998;4.250;2023-04-30T05:45:06;101996.34;;;10.21;75.84
13593;BME280;6867;50.998;4.250;2023-04-30T05:47:32;102002.00;;;10.34;75.67
13593;BME280;6867;50.998;4.250;2023-04-30T05:49:59;101986.72;;;10.35;74.83
13593;BME280;6867;50.998;4.250;2023-04-30T05:52:26;101987.81;;;10.48;74.61
13593;BME280;6867;50.998;4.250;2023-04-30T05:54:52;101982.75;;;10.77;74.44
13593;BME280;6867;50.998;4.250;2023-04-30T05:57:19;101983.16;;;10.65;74.23
13593;BME280;6867;50.998;4.250;2023-04-30T05:59:47;101987.19;;;10.92;74.07
13593;BME280;6867;50.998;4.250;2023-04-30T06:02:14;101976.78;;;10.89;73.98
13593;BME280;6867;50.998;4.250;2023-04-30T06:04:41;101973.56;;;10.71;73.77
13593;BME280;6867;50.998;4.250;2023-04-30T06:07:07;101992.59;;;11.07;73.55
13593;BME280;6867;50.998;4.250;2023-04-30T06:09:34;101985.94;;;11.18;73.10
13593;BME280;6867;50.998;4.250;2023-04-30T06:12:01;101974.16;;;11.19;73.09
13593;BME280;6867;50.998;4.250;2023-04-30T06:14:28;101973.34;;;11.18;72.98
13593;BME280;6867;50.998;4.250;2023-04-30T06:16:56;101973.00;;;11.36;72.29
13593;BME280;6867;50.998;4.250;2023-04-30T06:19:23;101979.41;;;11.65;72.06
13593;BME280;6867;50.998;4.250;2023-04-30T06:21:50;101970.63;;;11.71;71.82
13593;BME280;6867;50.998;4.250;2023-04-30T06:24:16;101974.16;;;11.71;71.41
13593;BME280;6867;50.998;4.250;2023-04-30T06:26:43;101972.00;;;11.82;71.09
13593;BME280;6867;50.998;4.250;2023-04-30T06:29:10;101974.44;;;11.91;71.29
13593;BME280;6867;50.998;4.250;2023-04-30T06:31:36;101984.56;;;11.89;71.40
13593;BME280;6867;50.998;4.250;2023-04-30T06:34:04;101981.75;;;12.12;71.32
13593;BME280;6867;50.998;4.250;2023-04-30T06:36:31;101990.22;;;12.09;71.57
13593;BME280;6867;50.998;4.250;2023-04-30T06:38:58;101989.94;;;12.40;71.01
13593;BME280;6867;50.998;4.250;2023-04-30T06:41:24;101966.25;;;12.51;70.01
13593;BME280;6867;50.998;4.250;2023-04-30T06:43:51;101978.59;;;12.66;70.30
13593;BME280;6867;50.998;4.250;2023-04-30T06:46:17;101970.25;;;12.83;69.87
13593;BME280;6867;50.998;4.250;2023-04-30T06:48:44;101958.75;;;12.95;68.96
13593;BME280;6867;50.998;4.250;2023-04-30T06:51:12;101959.50;;;13.32;68.27
13593;BME280;6867;50.998;4.250;2023-04-30T06:53:39;101935.63;;;13.08;67.54
13593;BME280;6867;50.998;4.250;2023-04-30T06:56:06;101941.84;;;13.30;67.66
13593;BME280;6867;50.998;4.250;2023-04-30T06:58:33;101954.47;;;13.23;67.86
13593;BME280;6867;50.998;4.250;2023-04-30T07:00:59;101947.53;;;13.41;67.57
13593;BME280;6867;50.998;4.250;2023-04-30T07:03:26;101938.13;;;13.65;67.15
13593;BME280;6867;50.998;4.250;2023-04-30T07:05:53;101925.69;;;13.71;66.19
13593;BME280;6867;50.998;4.250;2023-04-30T07:08:21;101918.66;;;13.83;66.34
13593;BME280;6867;50.998;4.250;2023-04-30T07:10:48;101905.25;;;13.97;65.33
13593;BME280;6867;50.998;4.250;2023-04-30T07:13:15;101902.53;;;13.97;65.29
13593;BME280;6867;50.998;4.250;2023-04-30T07:15:42;101904.28;;;14.31;65.05
13593;BME280;6867;50.998;4.250;2023-04-30T07:18:08;101897.22;;;14.30;64.69
13593;BME280;6867;50.998;4.250;2023-04-30T07:20:35;101907.19;;;14.29;64.36
13593;BME280;6867;50.998;4.250;2023-04-30T07:23:02;101900.56;;;14.38;64.37
13593;BME280;6867;50.998;4.250;2023-04-30T07:25:30;101886.91;;;14.60;63.76
13593;BME280;6867;50.998;4.250;2023-04-30T07:27:57;101879.59;;;14.67;63.28
13593;BME280;6867;50.998;4.250;2023-04-30T07:30:24;101877.72;;;14.54;62.89
13593;BME280;6867;50.998;4.250;2023-04-30T07:32:50;101854.25;;;14.55;62.34
13593;BME280;6867;50.998;4.250;2023-04-30T07:35:17;101860.47;;;14.49;62.70
13593;BME280;6867;50.998;4.250;2023-04-30T07:37:44;101864.03;;;14.76;62.43
13593;BME280;6867;50.998;4.250;2023-04-30T07:40:11;101868.16;;;14.78;62.41
13593;BME280;6867;50.998;4.250;2023-04-30T07:42:40;101884.81;;;14.88;62.15
13593;BME280;6867;50.998;4.250;2023-04-30T07:45:07;101872.53;;;15.06;61.73
13593;BME280;6867;50.998;4.250;2023-04-30T07:47:34;101865.97;;;15.40;61.21
13593;BME280;6867;50.998;4.250;2023-04-30T07:50:01;101848.50;;;15.36;60.53
13593;BME280;6867;50.998;4.250;2023-04-30T07:52:28;101825.97;;;15.42;59.79
13593;BME280;6867;50.998;4.250;2023-04-30T07:54:55;101860.75;;;15.45;60.38
13593;BME280;6867;50.998;4.250;2023-04-30T07:57:21;101842.13;;;15.75;59.50
13593;BME280;6867;50.998;4.250;2023-04-30T07:59:52;101849.69;;;15.53;59.79
13593;BME280;6867;50.998;4.250;2023-04-30T08:02:19;101840.50;;;15.61;59.63
13593;BME280;6867;50.998;4.250;2023-04-30T08:04:45;101818.31;;;15.84;59.00
13593;BME280;6867;50.998;4.250;2023-04-30T08:07:12;101831.59;;;15.99;58.90
13593;BME280;6867;50.998;4.250;2023-04-30T08:09:40;101873.00;;;15.67;60.19
13593;BME280;6867;50.998;4.250;2023-04-30T08:12:07;101855.72;;;16.07;59.33
13593;BME280;6867;50.998;4.250;2023-04-30T08:14:34;101834.84;;;16.14;58.79
13593;BME280;6867;50.998;4.250;2023-04-30T08:17:02;101865.31;;;16.34;59.25
13593;BME280;6867;50.998;4.250;2023-04-30T08:19:29;101852.56;;;16.73;58.85
13593;BME280;6867;50.998;4.250;2023-04-30T08:21:57;101817.81;;;16.82;57.59
13593;BME280;6867;50.998;4.250;2023-04-30T08:24:24;101843.75;;;16.46;58.59
13593;BME280;6867;50.998;4.250;2023-04-30T08:26:50;101812.25;;;16.77;57.35
13593;BME280;6867;50.998;4.250;2023-04-30T08:29:17;101824.75;;;16.78;57.35
13593;BME280;6867;50.998;4.250;2023-04-30T08:31:44;101793.63;;;16.99;56.67
13593;BME280;6867;50.998;4.250;2023-04-30T08:34:12;101791.75;;;17.17;56.21
13593;BME280;6867;50.998;4.250;2023-04-30T08:36:38;101793.50;;;16.93;56.24
13593;BME280;6867;50.998;4.250;2023-04-30T08:39:05;101833.59;;;16.91;56.97
13593;BME280;6867;50.998;4.250;2023-04-30T08:41:32;101795.34;;;17.30;55.70
13593;BME280;6867;50.998;4.250;2023-04-30T08:44:00;101818.88;;;17.73;55.76
13593;BME280;6867;50.998;4.250;2023-04-30T08:46:30;101788.94;;;17.91;54.64
13593;BME280;6867;50.998;4.250;2023-04-30T08:48:58;101756.97;;;18.28;53.68
13593;BME280;6867;50.998;4.250;2023-04-30T08:51:26;101756.03;;;18.34;53.20
13593;BME280;6867;50.998;4.250;2023-04-30T08:53:56;101706.25;;;18.46;51.90
13593;BME280;6867;50.998;4.250;2023-04-30T08:56:23;101707.28;;;18.80;51.22
13593;BME280;6867;50.998;4.250;2023-04-30T08:58:50;101688.84;;;18.58;51.20
13593;BME280;6867;50.998;4.250;2023-04-30T09:01:17;101687.78;;;18.59;50.81
13593;BME280;6867;50.998;4.250;2023-04-30T09:03:45;101692.25;;;19.29;50.14
13593;BME280;6867;50.998;4.250;2023-04-30T09:06:14;101668.22;;;19.43;49.18
13593;BME280;6867;50.998;4.250;2023-04-30T09:08:44;101705.84;;;19.29;50.30
13593;BME280;6867;50.998;4.250;2023-04-30T09:11:23;101656.44;;;19.09;49.28
13593;BME280;6867;50.998;4.250;2023-04-30T09:13:50;101719.94;;;19.26;50.24
13593;BME280;6867;50.998;4.250;2023-04-30T09:16:18;101643.28;;;19.34;48.47
13593;BME280;6867;50.998;4.250;2023-04-30T09:18:45;101625.59;;;19.20;48.36
13593;BME280;6867;50.998;4.250;2023-04-30T09:21:12;101719.97;;;18.86;50.61
13593;BME280;6867;50.998;4.250;2023-04-30T09:23:54;101670.06;;;19.09;49.37
13593;BME280;6867;50.998;4.250;2023-04-30T09:26:25;101729.03;;;19.03;50.54
13593;BME280;6867;50.998;4.250;2023-04-30T09:28:53;101642.31;;;18.83;49.01
13593;BME280;6867;50.998;4.250;2023-04-30T09:31:21;101669.63;;;18.88;49.20
13593;BME280;6867;50.998;4.250;2023-04-30T09:33:47;101633.00;;;19.08;48.68
13593;BME280;6867;50.998;4.250;2023-04-30T09:36:14;101655.88;;;19.35;48.60
13593;BME280;6867;50.998;4.250;2023-04-30T09:38:41;101624.91;;;18.84;48.50
13593;BME280;6867;50.998;4.250;2023-04-30T09:41:20;101632.34;;;18.89;48.90
13593;BME280;6867;50.998;4.250;2023-04-30T09:43:47;101671.97;;;18.97;49.31
13593;BME280;6867;50.998;4.250;2023-04-30T09:46:18;101655.22;;;18.88;49.06
13593;BME280;6867;50.998;4.250;2023-04-30T09:48:45;101623.44;;;19.22;48.06
13593;BME280;6867;50.998;4.250;2023-04-30T09:51:11;101654.91;;;19.58;48.43
13593;BME280;6867;50.998;4.250;2023-04-30T09:53:39;101645.53;;;19.83;47.84
13593;BME280;6867;50.998;4.250;2023-04-30T09:56:08;101587.25;;;19.38;47.16
13593;BME280;6867;50.998;4.250;2023-04-30T09:58:40;101628.50;;;19.30;48.19
13593;BME280;6867;50.998;4.250;2023-04-30T10:01:09;101601.72;;;19.73;47.11
13593;BME280;6867;50.998;4.250;2023-04-30T10:03:38;101624.13;;;19.92;47.18
13593;BME280;6867;50.998;4.250;2023-04-30T10:06:07;101588.34;;;19.88;46.64
13593;BME280;6867;50.998;4.250;2023-04-30T10:08:39;101554.06;;;19.75;46.41
13593;BME280;6867;50.998;4.250;2023-04-30T10:11:07;101585.19;;;19.96;46.32
13593;BME280;6867;50.998;4.250;2023-04-30T10:13:40;101513.13;;;19.70;44.94
13593;BME280;6867;50.998;4.250;2023-04-30T10:16:14;101527.22;;;19.84;45.22
13593;BME280;6867;50.998;4.250;2023-04-30T10:18:49;101500.66;;;19.96;44.27
13593;BME280;6867;50.998;4.250;2023-04-30T10:21:19;101566.19;;;19.84;45.76
13593;BME280;6867;50.998;4.250;2023-04-30T10:23:47;101482.38;;;20.19;43.29
13593;BME280;6867;50.998;4.250;2023-04-30T10:26:15;101496.34;;;20.22;43.72
13593;BME280;6867;50.998;4.250;2023-04-30T10:28:44;101554.88;;;20.14;44.71
13593;BME280;6867;50.998;4.250;2023-04-30T10:31:15;101490.81;;;20.39;43.34
13593;BME280;6867;50.998;4.250;2023-04-30T10:33:47;101474.25;;;20.46;42.82
13593;BME280;6867;50.998;4.250;2023-04-30T10:36:25;101511.72;;;20.28;43.59
13593;BME280;6867;50.998;4.250;2023-04-30T10:38:55;101507.56;;;20.26;43.85
13593;BME280;6867;50.998;4.250;2023-04-30T10:41:25;101502.50;;;20.34;43.78
13593;BME280;6867;50.998;4.250;2023-04-30T10:43:56;101493.97;;;20.75;43.29
13593;BME280;6867;50.998;4.250;2023-04-30T10:46:24;101483.94;;;20.85;42.78
13593;BME280;6867;50.998;4.250;2023-04-30T10:48:52;101449.78;;;21.15;41.54
13593;BME280;6867;50.998;4.250;2023-04-30T10:51:19;101541.25;;;21.07;43.70
13593;BME280;6867;50.998;4.250;2023-04-30T10:53:48;101435.31;;;21.14;41.30
13593;BME280;6867;50.998;4.250;2023-04-30T10:56:28;101431.66;;;21.36;40.87
13593;BME280;6867;50.998;4.250;2023-04-30T10:58:59;101415.34;;;21.14;41.15
13593;BME280;6867;50.998;4.250;2023-04-30T11:01:26;101420.66;;;20.94;41.36
13593;BME280;6867;50.998;4.250;2023-04-30T11:04:04;101407.47;;;21.60;40.38
13593;BME280;6867;50.998;4.250;2023-04-30T11:06:53;101343.53;;;21.19;39.68
13593;BME280;6867;50.998;4.250;2023-04-30T11:09:34;101374.16;;;21.16;40.17
13593;BME280;6867;50.998;4.250;2023-04-30T11:12:02;101389.13;;;21.50;39.92
13593;BME280;6867;50.998;4.250;2023-04-30T11:14:32;101362.41;;;21.73;39.37
13593;BME280;6867;50.998;4.250;2023-04-30T11:16:59;101311.78;;;21.55;38.78
13593;BME280;6867;50.998;4.250;2023-04-30T11:19:27;101335.84;;;21.53;39.22
13593;BME280;6867;50.998;4.250;2023-04-30T11:22:16;101434.97;;;21.91;40.45
13593;BME280;6867;50.998;4.250;2023-04-30T11:24:51;101345.97;;;21.62;39.63
13593;BME280;6867;50.998;4.250;2023-04-30T11:27:22;101391.22;;;22.01;39.86
13593;BME280;6867;50.998;4.250;2023-04-30T11:29:51;101399.88;;;22.71;39.37
13593;BME280;6867;50.998;4.250;2023-04-30T11:32:19;101353.28;;;22.40;38.71
13593;BME280;6867;50.998;4.250;2023-04-30T11:34:46;101367.22;;;22.18;39.36
13593;BME280;6867;50.998;4.250;2023-04-30T11:37:18;101333.59;;;22.53;37.88
13593;BME280;6867;50.998;4.250;2023-04-30T11:39:46;101381.22;;;22.47;39.12
13593;BME280;6867;50.998;4.250;2023-04-30T11:42:15;101378.22;;;22.38;39.17
13593;BME280;6867;50.998;4.250;2023-04-30T11:44:42;101320.44;;;22.30;38.13
13593;BME280;6867;50.998;4.250;2023-04-30T11:47:11;101251.47;;;22.38;36.38
13593;BME280;6867;50.998;4.250;2023-04-30T11:49:38;101271.34;;;21.67;38.19
13593;BME280;6867;50.998;4.250;2023-04-30T11:52:05;101327.06;;;21.51;39.38
13593;BME280;6867;50.998;4.250;2023-04-30T11:54:35;101293.97;;;21.47;38.83
13593;BME280;6867;50.998;4.250;2023-04-30T11:57:02;101295.22;;;21.92;37.83
13593;BME280;6867;50.998;4.250;2023-04-30T11:59:29;101292.53;;;22.18;37.66
13593;BME280;6867;50.998;4.250;2023-04-30T12:01:56;101245.75;;;22.29;36.77
13593;BME280;6867;50.998;4.250;2023-04-30T12:04:25;101223.28;;;22.43;36.13
13593;BME280;6867;50.998;4.250;2023-04-30T12:06:51;101252.88;;;22.25;36.52
13593;BME280;6867;50.998;4.250;2023-04-30T12:09:18;101274.72;;;22.10;37.52
13593;BME280;6867;50.998;4.250;2023-04-30T12:11:46;101298.28;;;22.36;37.80
13593;BME280;6867;50.998;4.250;2023-04-30T12:14:13;101262.13;;;22.70;36.74
13593;BME280;6867;50.998;4.250;2023-04-30T12:16:42;101215.53;;;22.80;35.87
13593;BME280;6867;50.998;4.250;2023-04-30T12:19:09;101184.16;;;22.32;36.29
13593;BME280;6867;50.998;4.250;2023-04-30T12:21:38;101163.91;;;22.38;35.82
13593;BME280;6867;50.998;4.250;2023-04-30T12:24:06;101209.25;;;22.75;35.75
13593;BME280;6867;50.998;4.250;2023-04-30T12:26:34;101180.03;;;22.50;35.71
13593;BME280;6867;50.998;4.250;2023-04-30T12:29:03;101238.81;;;22.73;36.56
13593;BME280;6867;50.998;4.250;2023-04-30T12:31:30;101219.88;;;22.86;35.88
13593;BME280;6867;50.998;4.250;2023-04-30T12:33:58;101269.72;;;23.09;36.61
13593;BME280;6867;50.998;4.250;2023-04-30T12:36:29;101215.97;;;23.18;35.11
13593;BME280;6867;50.998;4.250;2023-04-30T12:39:04;101225.59;;;23.70;35.21
13593;BME280;6867;50.998;4.250;2023-04-30T12:41:35;101236.31;;;24.01;34.77
13593;BME280;6867;50.998;4.250;2023-04-30T12:44:18;101182.06;;;23.48;34.75
13593;BME280;6867;50.998;4.250;2023-04-30T12:46:45;101121.69;;;23.19;33.98
13593;BME280;6867;50.998;4.250;2023-04-30T12:49:21;101140.78;;;23.34;33.65
13593;BME280;6867;50.998;4.250;2023-04-30T12:51:49;101164.84;;;23.43;34.45
13593;BME280;6867;50.998;4.250;2023-04-30T12:54:25;101090.47;;;23.15;33.32
13593;BME280;6867;50.998;4.250;2023-04-30T12:57:02;101188.34;;;23.09;35.24
13593;BME280;6867;50.998;4.250;2023-04-30T12:59:30;101090.97;;;22.73;34.05
13593;BME280;6867;50.998;4.250;2023-04-30T13:02:08;101245.88;;;23.64;35.37
13593;BME280;6867;50.998;4.250;2023-04-30T13:04:35;101239.19;;;23.85;34.84
13593;BME280;6867;50.998;4.250;2023-04-30T13:07:01;101138.16;;;23.93;33.26
13593;BME280;6867;50.998;4.250;2023-04-30T13:09:30;101133.59;;;23.83;33.07
13593;BME280;6867;50.998;4.250;2023-04-30T13:11:57;101118.53;;;23.41;33.70
13593;BME280;6867;50.998;4.250;2023-04-30T13:14:24;101169.22;;;24.17;33.46